Time;durP1;ratioP1;P1;durP2;ratioP2;P2;SDS_P1;SDS_P2;PMS_P1;PMS_P2;Temp;Humidity;BMP_temperature;BMP_pressure;BME280_temperature;BME280_humidity;BME280_pressure;Samples;Min_cycle;Max_cycle;Signal;HPM_P1;HPM_P2
2023/04/19 00:00:29;;;;;;;12.63;11.73;;;12.70;53.90;;;;;;20600;6816;304434;-76
2023/04/19 00:02:55;;;;;;;13.15;12.23;;;12.80;53.60;;;;;;20592;6816;277280;-77
2023/04/19 00:05:23;;;;;;;18.07;12.33;;;13.00;53.10;;;;;;20817;6816;117486;-78
2023/04/19 00:07:46;;;;;;;12.20;11.00;;;12.90;53.40;;;;;;20789;6816;123116;-75
2023/04/19 00:10:12;;;;;;;11.20;10.30;;;12.70;54.00;;;;;;20814;6816;117556;-75
2023/04/19 00:12:38;;;;;;;11.60;10.70;;;12.40;54.50;;;;;;20810;6816;117391;-75
2023/04/19 00:15:03;;;;;;;13.00;12.10;;;12.20;55.00;;;;;;20600;6816;310939;-75
2023/04/19 00:17:29;;;;;;;11.77;10.87;;;12.40;54.70;;;;;;20785;6816;117900;-77
2023/04/19 00:19:55;;;;;;;13.60;12.60;;;12.30;54.60;;;;;;20597;6816;320996;-76
2023/04/19 00:22:20;;;;;;;15.00;13.60;;;12.50;54.30;;;;;;20600;6814;277707;-75
2023/04/19 00:24:46;;;;;;;15.95;13.45;;;12.80;53.70;;;;;;20823;6815;117795;-75
2023/04/19 00:27:11;;;;;;;12.00;11.00;;;12.70;53.90;;;;;;20830;6816;118074;-75
2023/04/19 00:29:37;;;;;;;13.18;12.20;;;12.40;54.40;;;;;;20583;6816;311862;-74
2023/04/19 00:32:04;;;;;;;13.77;12.68;;;12.70;53.60;;;;;;20601;6816;298688;-74
2023/04/19 00:34:30;;;;;;;12.37;11.47;;;12.70;53.60;;;;;;20808;6816;116532;-75
2023/04/19 00:36:56;;;;;;;13.52;12.52;;;12.60;53.80;;;;;;20604;6816;307388;-74
2023/04/19 00:39:22;;;;;;;13.75;12.63;;;12.90;53.10;;;;;;20602;6816;306390;-75
2023/04/19 00:41:47;;;;;;;13.62;12.63;;;12.80;53.00;;;;;;20581;6816;307731;-75
2023/04/19 00:44:13;;;;;;;12.98;12.07;;;13.00;52.60;;;;;;20606;6816;287460;-75
2023/04/19 00:46:41;;;;;;;13.57;12.47;;;13.20;52.00;;;;;;20603;6816;311378;-74
2023/04/19 00:49:07;;;;;;;13.23;12.23;;;13.30;51.70;;;;;;20594;6816;303327;-74
2023/04/19 00:51:33;;;;;;;11.57;10.67;;;13.30;51.70;;;;;;20786;6816;118220;-75
2023/04/19 00:53:58;;;;;;;11.95;10.95;;;13.00;52.30;;;;;;20813;6816;117971;-74
2023/04/19 00:56:24;;;;;;;11.33;10.37;;;12.70;53.80;;;;;;20811;6816;121098;-75
2023/04/19 00:58:49;;;;;;;13.73;12.73;;;12.40;54.00;;;;;;20587;6816;334191;-74
2023/04/19 01:01:15;;;;;;;12.27;11.27;;;12.50;53.90;;;;;;20808;6816;117510;-74
2023/04/19 01:03:40;;;;;;;11.23;10.33;;;12.40;54.10;;;;;;20773;6816;117632;-75
2023/04/19 01:06:06;;;;;;;13.30;12.30;;;12.20;54.60;;;;;;20598;6816;306406;-75
2023/04/19 01:08:32;;;;;;;11.55;10.65;;;12.30;54.40;;;;;;20811;6816;117368;-74
2023/04/19 01:10:58;;;;;;;11.20;10.20;;;12.30;54.30;;;;;;20807;6816;117566;-75
2023/04/19 01:13:23;;;;;;;11.97;10.97;;;12.10;54.80;;;;;;20800;6816;117857;-75
2023/04/19 01:15:50;;;;;;;13.67;12.67;;;11.90;55.20;;;;;;20565;6816;291283;-74
2023/04/19 01:18:14;;;;;;;12.43;11.43;;;12.10;54.80;;;;;;20809;6816;117464;-75
2023/04/19 01:20:40;;;;;;;11.23;10.43;;;12.20;54.90;;;;;;20802;6816;117920;-75
2023/04/19 01:23:10;;;;;;;12.15;11.20;;;12.00;55.20;;;;;;20804;6816;117927;-74
2023/04/19 01:25:31;;;;;;;14.30;13.13;;;11.80;55.60;;;;;;20569;6816;277762;-74
2023/04/19 01:27:57;;;;;;;13.90;12.80;;;12.00;55.10;;;;;;20599;6816;307257;-74
2023/04/19 01:30:24;;;;;;;13.93;12.82;;;12.40;54.40;;;;;;20587;6816;311799;-74
2023/04/19 01:32:49;;;;;;;13.93;12.93;;;12.60;53.60;;;;;;20605;6814;284912;-74
2023/04/19 01:35:15;;;;;;;13.23;12.33;;;12.90;53.00;;;;;;20602;6815;307227;-74
2023/04/19 01:37:40;;;;;;;11.88;11.00;;;13.00;52.60;;;;;;20783;6816;117871;-74
2023/04/19 01:40:07;;;;;;;11.63;10.70;;;12.80;53.00;;;;;;20815;6816;116750;-74
2023/04/19 01:42:34;;;;;;;13.35;12.35;;;12.50;53.70;;;;;;20580;6816;307254;-74
2023/04/19 01:45:01;;;;;;;12.07;11.13;;;12.50;53.40;;;;;;20801;6816;117761;-74
2023/04/19 01:47:26;;;;;;;11.63;10.63;;;12.50;53.80;;;;;;20811;6816;117933;-74
2023/04/19 01:49:52;;;;;;;13.67;12.50;;;12.20;54.30;;;;;;20586;6816;277622;-74
2023/04/19 01:52:17;;;;;;;11.60;10.80;;;12.30;54.10;;;;;;20806;6816;121229;-74
2023/04/19 01:54:43;;;;;;;11.80;10.90;;;12.30;54.30;;;;;;20815;6816;121619;-74
2023/04/19 01:57:08;;;;;;;14.23;13.02;;;12.10;54.90;;;;;;20605;6816;307613;-74
2023/04/19 01:59:34;;;;;;;12.80;11.70;;;12.20;54.50;;;;;;20789;6816;117952;-74
2023/04/19 02:02:00;;;;;;;11.40;10.50;;;12.20;54.70;;;;;;20802;6816;118166;-74
2023/04/19 02:04:26;;;;;;;11.07;10.13;;;11.90;55.40;;;;;;20810;6816;118184;-75
2023/04/19 02:06:51;;;;;;;13.90;12.90;;;11.80;55.30;;;;;;20597;6816;306870;-74
2023/04/19 02:09:17;;;;;;;13.77;12.70;;;12.00;54.90;;;;;;20586;6816;277601;-77
2023/04/19 02:11:43;;;;;;;12.02;10.90;;;12.30;54.20;;;;;;20790;6816;117650;-75
2023/04/19 02:14:08;;;;;;;14.70;13.50;;;12.30;54.40;;;;;;20607;6816;311276;-74
2023/04/19 02:16:35;;;;;;;11.85;11.05;;;12.40;54.00;;;;;;20816;6816;117904;-74
2023/04/19 02:19:00;;;;;;;12.13;11.03;;;12.30;54.20;;;;;;20813;6816;117400;-75
2023/04/19 02:21:26;;;;;;;11.60;10.70;;;11.90;55.40;;;;;;20805;6816;117481;-75
2023/04/19 02:23:52;;;;;;;14.27;13.17;;;11.90;55.30;;;;;;20581;6816;297645;-75
2023/04/19 02:26:19;;;;;;;12.68;11.38;;;12.00;54.90;;;;;;20803;6816;117398;-75
2023/04/19 02:28:44;;;;;;;12.40;11.30;;;12.00;54.90;;;;;;20813;6816;117472;-75
2023/04/19 02:31:09;;;;;;;14.27;13.23;;;11.80;55.30;;;;;;20608;6816;280439;-75
2023/04/19 02:33:37;;;;;;;14.55;13.48;;;12.00;55.00;;;;;;20564;6816;307000;-75
2023/04/19 02:36:03;;;;;;;15.00;13.90;;;12.50;53.60;;;;;;20598;6816;280973;-75
2023/04/19 02:38:29;;;;;;;12.77;11.67;;;12.50;53.60;;;;;;20807;6816;119642;-75
2023/04/19 02:40:54;;;;;;;12.25;11.20;;;12.40;53.90;;;;;;20813;6816;121215;-75
2023/04/19 02:43:20;;;;;;;12.07;11.03;;;12.20;54.60;;;;;;20801;6816;117907;-75
2023/04/19 02:45:47;;;;;;;13.00;11.70;;;11.90;55.10;;;;;;20793;6814;117810;-74
2023/04/19 02:48:12;;;;;;;16.60;15.20;;;11.60;55.50;;;;;;20600;6816;277340;-75
2023/04/19 02:50:38;;;;;;;13.38;12.23;;;11.80;55.30;;;;;;20815;6816;117763;-75
2023/04/19 02:53:03;;;;;;;12.63;11.52;;;11.80;55.30;;;;;;20812;6816;117850;-74
2023/04/19 02:55:29;;;;;;;15.73;14.52;;;11.60;55.60;;;;;;20600;6816;306750;-78
2023/04/19 02:57:54;;;;;;;14.87;13.40;;;11.80;55.40;;;;;;20805;6816;119570;-74
2023/04/19 03:00:20;;;;;;;17.02;15.52;;;11.70;55.40;;;;;;20603;6816;306847;-75
2023/04/19 03:02:46;;;;;;;14.60;13.20;;;11.90;55.20;;;;;;20806;6816;117425;-75
2023/04/19 03:05:11;;;;;;;16.30;14.95;;;11.80;55.20;;;;;;20602;6816;310982;-75
2023/04/19 03:07:37;;;;;;;32.57;26.40;;;11.90;55.50;;;;;;20796;6816;117638;-74
2023/04/19 03:10:03;;;;;;;15.63;14.43;;;11.90;55.10;;;;;;20593;6816;306301;-75
2023/04/19 03:12:29;;;;;;;13.77;12.63;;;12.00;54.80;;;;;;20808;6816;117530;-74
2023/04/19 03:14:55;;;;;;;13.27;12.00;;;11.70;55.60;;;;;;20815;6816;117429;-74
2023/04/19 03:17:21;;;;;;;15.80;14.50;;;11.60;55.40;;;;;;20588;6816;302566;-75
2023/04/19 03:19:46;;;;;;;15.48;14.38;;;11.80;55.40;;;;;;20578;6816;311299;-75
2023/04/19 03:22:12;;;;;;;13.97;12.80;;;12.10;54.90;;;;;;20811;6816;117635;-75
2023/04/19 03:24:37;;;;;;;16.08;14.82;;;12.00;55.00;;;;;;20599;6816;276992;-75
2023/04/19 03:27:04;;;;;;;12.80;11.70;;;12.10;54.80;;;;;;20809;6816;121399;-75
2023/04/19 03:29:30;;;;;;;12.97;11.87;;;12.00;55.00;;;;;;20796;6816;117503;-75
2023/04/19 03:31:55;;;;;;;16.08;14.52;;;11.70;55.50;;;;;;20591;6816;307260;-75
2023/04/19 03:34:21;;;;;;;13.57;12.32;;;11.80;55.70;;;;;;20821;6816;117506;-75
2023/04/19 03:36:46;;;;;;;16.02;14.65;;;11.70;55.60;;;;;;20600;6816;341039;-75
2023/04/19 03:39:12;;;;;;;14.23;13.05;;;11.80;55.30;;;;;;20826;6816;117784;-75
2023/04/19 03:41:37;;;;;;;14.25;12.88;;;11.80;55.50;;;;;;20788;6816;123396;-75
2023/04/19 03:44:03;;;;;;;15.63;14.35;;;11.60;56.00;;;;;;20585;6816;307168;-75
2023/04/19 03:46:30;;;;;;;16.80;15.40;;;12.00;55.10;;;;;;20595;6816;308112;-75
2023/04/19 03:48:55;;;;;;;14.80;13.50;;;12.00;55.10;;;;;;20814;6816;117851;-75
2023/04/19 03:51:21;;;;;;;13.98;12.65;;;11.60;55.70;;;;;;20809;6816;117527;-75
2023/04/19 03:53:48;;;;;;;16.47;15.17;;;11.70;55.80;;;;;;20584;6816;294138;-75
2023/04/19 03:56:16;;;;;;;14.40;13.07;;;11.70;55.70;;;;;;20810;6814;118052;-75
2023/04/19 03:58:41;;;;;;;14.17;12.23;;;11.70;55.70;;;;;;20815;6815;117812;-75
2023/04/19 04:01:07;;;;;;;13.70;12.40;;;11.50;56.10;;;;;;20812;6816;117333;-75
2023/04/19 04:03:32;;;;;;;13.17;11.97;;;11.30;56.60;;;;;;20792;6816;123755;-76
2023/04/19 04:05:58;;;;;;;16.23;14.93;;;11.20;57.10;;;;;;20608;6816;311565;-75
2023/04/19 04:08:24;;;;;;;14.70;13.23;;;11.40;56.60;;;;;;20823;6816;119031;-77
2023/04/19 04:10:50;;;;;;;21.00;18.80;;;11.40;56.60;;;;;;20820;6816;117387;-76
2023/04/19 04:13:15;;;;;;;14.43;13.00;;;11.20;56.90;;;;;;20808;6816;123766;-77
2023/04/19 04:15:42;;;;;;;14.20;12.90;;;11.10;57.30;;;;;;20791;6816;121761;-76
2023/04/19 04:18:07;;;;;;;13.90;12.57;;;11.00;57.70;;;;;;20810;6816;118034;-75
2023/04/19 04:20:33;;;;;;;13.40;12.20;;;10.90;58.00;;;;;;20802;6816;117475;-75
2023/04/19 04:22:59;;;;;;;17.25;15.65;;;11.00;57.00;;;;;;20600;6816;279806;-73
2023/04/19 04:25:27;;;;;;;17.87;16.58;;;11.00;57.60;;;;;;20588;6816;310310;-71
2023/04/19 04:27:51;;;;;;;18.10;16.50;;;11.40;56.60;;;;;;20572;6816;311688;-72
2023/04/19 04:30:17;;;;;;;18.23;16.73;;;11.70;55.80;;;;;;20594;6816;307147;-78
2023/04/19 04:32:43;;;;;;;16.30;14.90;;;11.90;55.00;;;;;;20806;6816;117505;-73
2023/04/19 04:35:10;;;;;;;14.87;13.50;;;11.50;56.00;;;;;;20806;6816;117935;-70
2023/04/19 04:37:36;;;;;;;18.40;16.80;;;11.60;56.10;;;;;;20575;6816;306834;-71
2023/04/19 04:40:04;;;;;;;18.17;16.58;;;11.50;56.00;;;;;;20592;6816;277806;-73
2023/04/19 04:42:30;;;;;;;18.87;17.20;;;11.80;55.50;;;;;;20590;6816;305757;-73
2023/04/19 04:44:52;;;;;;;16.83;15.30;;;12.00;54.90;;;;;;20807;6816;117824;-71
2023/04/19 04:47:18;;;;;;;18.83;17.30;;;11.90;55.00;;;;;;20601;6816;307430;-71
2023/04/19 04:49:44;;;;;;;15.53;14.03;;;11.70;55.20;;;;;;20787;6816;124269;-71
2023/04/19 04:52:10;;;;;;;16.00;14.60;;;11.70;55.20;;;;;;20807;6816;117653;-72
2023/04/19 04:54:35;;;;;;;18.95;17.35;;;11.50;55.90;;;;;;20599;6816;278417;-70
2023/04/19 04:57:01;;;;;;;18.27;16.67;;;11.50;55.90;;;;;;20597;6816;336856;-70
2023/04/19 04:59:27;;;;;;;18.77;17.23;;;11.80;55.20;;;;;;20592;6816;307129;-71
2023/04/19 05:01:53;;;;;;;15.50;14.10;;;11.90;54.90;;;;;;20778;6816;122937;-69
2023/04/19 05:04:18;;;;;;;15.30;13.77;;;11.90;54.90;;;;;;20807;6816;117859;-70
2023/04/19 05:06:44;;;;;;;17.95;16.35;;;11.60;55.50;;;;;;20587;6814;311407;-71
2023/04/19 05:09:10;;;;;;;16.53;14.93;;;11.60;55.20;;;;;;20770;6815;117297;-71
2023/04/19 05:11:35;;;;;;;15.30;13.98;;;11.60;55.40;;;;;;20777;6816;122617;-69
2023/04/19 05:14:01;;;;;;;15.90;14.27;;;11.20;56.80;;;;;;20793;6816;117949;-71
2023/04/19 05:16:27;;;;;;;18.03;16.53;;;11.10;56.30;;;;;;20585;6816;282885;-71
2023/04/19 05:18:53;;;;;;;15.03;13.73;;;11.30;56.30;;;;;;20794;6816;117392;-70
2023/04/19 05:21:19;;;;;;;15.63;14.13;;;11.30;56.30;;;;;;20812;6816;117406;-71
2023/04/19 05:23:44;;;;;;;14.30;13.10;;;11.10;56.70;;;;;;20800;6816;117794;-70
2023/04/19 05:26:11;;;;;;;14.63;13.40;;;11.00;57.10;;;;;;20812;6816;117637;-72
2023/04/19 05:28:36;;;;;;;14.77;13.23;;;10.80;57.80;;;;;;20799;6816;120032;-73
2023/04/19 05:31:02;;;;;;;14.20;12.90;;;10.80;57.80;;;;;;20808;6816;117454;-71
2023/04/19 05:33:28;;;;;;;15.30;13.75;;;10.70;58.50;;;;;;20806;6816;117532;-70
2023/04/19 05:35:54;;;;;;;14.17;12.93;;;10.60;58.20;;;;;;20789;6816;118434;-70
2023/04/19 05:38:19;;;;;;;14.55;12.55;;;10.60;58.50;;;;;;20809;6816;117485;-71
2023/04/19 05:40:45;;;;;;;18.27;16.58;;;10.60;58.80;;;;;;20594;6816;335879;-71
2023/04/19 05:43:10;;;;;;;16.10;14.35;;;10.90;58.00;;;;;;20815;6816;123724;-70
2023/04/19 05:45:36;;;;;;;15.97;14.53;;;11.00;57.80;;;;;;20774;6816;121327;-71
2023/04/19 05:48:01;;;;;;;14.40;13.15;;;11.00;58.10;;;;;;20814;6816;117658;-71
2023/04/19 05:50:27;;;;;;;17.02;15.52;;;10.90;58.30;;;;;;20592;6816;336281;-72
2023/04/19 05:52:53;;;;;;;16.00;14.52;;;11.20;57.00;;;;;;20813;6816;123665;-70
2023/04/19 05:55:18;;;;;;;18.80;17.20;;;11.20;56.80;;;;;;20597;6816;311174;-72
2023/04/19 05:57:44;;;;;;;15.60;14.17;;;11.40;56.10;;;;;;20798;6816;118018;-74
2023/04/19 06:00:10;;;;;;;14.47;13.23;;;11.30;56.60;;;;;;20806;6816;119831;-73
2023/04/19 06:02:36;;;;;;;15.37;14.13;;;11.30;56.60;;;;;;20816;6816;117470;-70
2023/04/19 06:05:05;;;;;;;18.10;16.60;;;11.10;57.10;;;;;;20611;6816;306840;-71
2023/04/19 06:07:30;;;;;;;15.70;14.30;;;11.30;56.50;;;;;;20780;6816;117558;-70
2023/04/19 06:09:56;;;;;;;18.65;17.12;;;11.30;56.50;;;;;;20580;6816;307005;-70
2023/04/19 06:12:21;;;;;;;18.85;17.35;;;11.60;56.00;;;;;;20594;6816;340789;-70
2023/04/19 06:14:47;;;;;;;18.43;16.93;;;11.90;55.10;;;;;;20575;6816;306699;-70
2023/04/19 06:17:15;;;;;;;19.12;17.62;;;12.20;54.30;;;;;;20607;6816;276781;-70
2023/04/19 06:19:38;;;;;;;18.90;17.30;;;12.40;53.60;;;;;;20583;6814;307040;-70
2023/04/19 06:22:04;;;;;;;15.98;14.48;;;12.60;52.90;;;;;;20798;6815;118036;-70
2023/04/19 06:24:30;;;;;;;15.33;14.03;;;12.20;54.50;;;;;;20814;6816;117869;-69
2023/04/19 06:26:55;;;;;;;16.07;14.60;;;12.10;54.40;;;;;;20816;6816;120002;-70
2023/04/19 06:29:22;;;;;;;17.95;16.50;;;11.90;55.20;;;;;;20601;6816;276880;-70
2023/04/19 06:31:47;;;;;;;16.63;14.80;;;12.10;54.50;;;;;;20794;6816;120736;-70
2023/04/19 06:34:12;;;;;;;15.80;14.25;;;12.00;54.70;;;;;;20816;6816;117589;-70
2023/04/19 06:36:38;;;;;;;15.75;14.30;;;11.90;55.20;;;;;;20814;6816;117467;-70
2023/04/19 06:39:03;;;;;;;18.30;16.57;;;11.80;55.80;;;;;;20600;6816;277304;-70
2023/04/19 06:41:30;;;;;;;18.20;16.80;;;12.30;54.10;;;;;;20595;6816;311402;-71
2023/04/19 06:43:55;;;;;;;16.27;14.77;;;12.30;54.10;;;;;;20658;6816;117845;-71
2023/04/19 06:46:21;;;;;;;18.45;16.85;;;12.40;54.40;;;;;;20602;6816;316247;-71
2023/04/19 06:48:47;;;;;;;16.17;14.77;;;12.50;54.00;;;;;;20817;6816;117822;-71
2023/04/19 06:51:13;;;;;;;15.23;13.87;;;12.40;53.80;;;;;;20813;6816;117493;-72
2023/04/19 06:53:38;;;;;;;18.00;16.50;;;12.30;54.60;;;;;;20582;6816;299072;-71
2023/04/19 06:56:05;;;;;;;17.17;14.90;;;12.50;54.10;;;;;;20813;6816;117626;-71
2023/04/19 06:58:33;;;;;;;16.50;14.37;;;12.40;54.00;;;;;;20809;6816;117669;-72
2023/04/19 07:01:00;;;;;;;15.03;13.63;;;12.30;54.40;;;;;;20811;6816;123803;-71
2023/04/19 07:03:24;;;;;;;18.30;16.70;;;12.20;54.80;;;;;;20591;6816;306298;-73
2023/04/19 07:05:55;;;;;;;18.40;16.80;;;12.60;53.10;;;;;;20583;6816;325502;-73
2023/04/19 07:08:19;;;;;;;15.73;14.33;;;12.60;53.10;;;;;;20804;6816;117927;-73
2023/04/19 07:10:44;;;;;;;14.73;13.35;;;12.60;53.40;;;;;;20824;6816;122054;-73
2023/04/19 07:13:11;;;;;;;14.50;13.02;;;12.20;54.50;;;;;;20821;6816;123295;-73
2023/04/19 07:15:36;;;;;;;15.33;13.90;;;12.20;54.50;;;;;;20790;6816;126504;-73
2023/04/19 07:18:02;;;;;;;18.20;16.40;;;12.00;54.70;;;;;;20595;6816;306738;-73
2023/04/19 07:20:30;;;;;;;15.10;13.80;;;12.30;54.30;;;;;;20797;6816;117984;-73
2023/04/19 07:22:54;;;;;;;15.57;14.17;;;12.30;54.20;;;;;;20802;6816;118003;-73
2023/04/19 07:25:20;;;;;;;16.77;15.40;;;12.20;54.80;;;;;;20611;6816;277098;-73
2023/04/19 07:27:47;;;;;;;43.70;39.47;;;12.80;52.50;;;;;;20586;6816;306548;-74
2023/04/19 07:30:13;;;;;;;18.12;16.62;;;13.10;51.30;;;;;;20609;6814;335821;-73
2023/04/19 07:32:38;;;;;;;16.73;15.23;;;13.10;51.30;;;;;;20599;6815;307907;-73
2023/04/19 07:35:06;;;;;;;16.73;15.32;;;13.50;50.10;;;;;;20602;6816;306109;-73
2023/04/19 07:37:32;;;;;;;14.30;13.10;;;13.50;50.00;;;;;;20793;6816;117963;-73
2023/04/19 07:39:58;;;;;;;13.80;12.60;;;13.40;50.90;;;;;;20818;6816;117800;-73
2023/04/19 07:42:23;;;;;;;14.02;12.63;;;13.10;51.60;;;;;;20813;6816;117473;-72
2023/04/19 07:44:49;;;;;;;13.43;12.25;;;12.80;52.00;;;;;;20810;6816;118342;-73
2023/04/19 07:47:14;;;;;;;12.43;11.23;;;12.60;52.60;;;;;;20815;6816;118301;-73
2023/04/19 07:49:40;;;;;;;15.55;14.20;;;12.40;52.90;;;;;;20569;6816;311746;-72
2023/04/19 07:52:05;;;;;;;12.77;11.77;;;12.60;51.60;;;;;;20814;6816;117854;-74
2023/04/19 07:54:32;;;;;;;12.80;11.67;;;12.50;52.50;;;;;;20804;6816;117344;-78
2023/04/19 07:56:57;;;;;;;14.90;13.77;;;12.50;52.40;;;;;;20598;6816;287240;-74
2023/04/19 07:59:23;;;;;;;15.20;13.73;;;12.60;51.20;;;;;;20600;6816;282666;-74
2023/04/19 08:01:48;;;;;;;13.57;12.37;;;13.00;50.60;;;;;;20798;6816;185764;-74
2023/04/19 08:04:15;;;;;;;12.67;11.57;;;13.00;51.20;;;;;;20810;6816;119052;-73
2023/04/19 08:06:40;;;;;;;12.90;11.77;;;12.80;51.70;;;;;;20814;6816;117872;-74
2023/04/19 08:09:05;;;;;;;12.10;11.10;;;12.70;52.40;;;;;;20823;6816;118083;-76
2023/04/19 08:11:31;;;;;;;11.80;10.77;;;12.50;53.00;;;;;;20802;6816;117651;-76
2023/04/19 08:13:57;;;;;;;12.57;11.37;;;12.50;53.00;;;;;;20821;6816;118718;-74
2023/04/19 08:16:23;;;;;;;11.70;10.70;;;12.50;53.50;;;;;;20817;6816;117707;-74
2023/04/19 08:18:50;;;;;;;13.93;11.67;;;12.60;53.70;;;;;;20809;6816;117448;-75
2023/04/19 08:21:14;;;;;;;12.37;11.27;;;12.60;53.80;;;;;;20807;6816;117789;-76
2023/04/19 08:23:39;;;;;;;12.40;11.07;;;12.60;53.80;;;;;;20796;6816;118144;-76
2023/04/19 08:26:06;;;;;;;12.10;11.07;;;12.70;54.00;;;;;;20808;6816;117970;-78
2023/04/19 08:28:31;;;;;;;11.93;10.93;;;12.70;53.90;;;;;;20817;6816;121806;-74
2023/04/19 08:30:57;;;;;;;15.13;13.93;;;12.70;53.90;;;;;;20612;6816;278486;-74
2023/04/19 08:33:23;;;;;;;14.00;12.80;;;13.00;52.30;;;;;;20607;6816;279195;-74
2023/04/19 08:35:49;;;;;;;14.87;13.65;;;13.60;51.30;;;;;;20620;6816;280776;-74
2023/04/19 08:38:15;;;;;;;14.77;13.43;;;14.00;49.70;;;;;;20823;6816;117377;-73
2023/04/19 08:40:45;;;;;;;15.50;14.05;;;13.90;51.10;;;;;;20816;6816;117475;-80
2023/04/19 08:43:11;;;;;;;13.57;12.47;;;13.80;51.80;;;;;;20797;6814;121389;-74
2023/04/19 08:45:36;;;;;;;14.40;13.23;;;13.80;51.80;;;;;;20796;6815;123232;-74
2023/04/19 08:48:02;;;;;;;13.95;12.75;;;13.80;52.40;;;;;;20815;6816;120728;-74
2023/04/19 08:50:28;;;;;;;13.70;12.30;;;13.70;52.60;;;;;;20807;6816;120298;-73
2023/04/19 08:52:53;;;;;;;15.63;14.40;;;13.60;52.90;;;;;;20602;6816;305878;-74
2023/04/19 08:55:19;;;;;;;15.95;14.65;;;13.90;51.00;;;;;;20599;6816;309415;-73
2023/04/19 08:57:45;;;;;;;15.80;14.50;;;14.60;48.80;;;;;;20576;6816;307687;-74
2023/04/19 09:00:11;;;;;;;14.77;13.33;;;14.60;48.80;;;;;;20816;6816;117539;-73
2023/04/19 09:02:51;;;;;;;13.77;12.57;;;14.40;50.40;;;;;;20811;6816;117490;-74
2023/04/19 09:05:17;;;;;;;14.00;12.50;;;14.20;51.60;;;;;;20807;6816;117509;-73
2023/04/19 09:07:42;;;;;;;16.00;14.70;;;14.20;51.00;;;;;;20588;6816;279109;-73
2023/04/19 09:10:08;;;;;;;15.20;14.00;;;14.30;49.50;;;;;;20612;6816;277841;-73
2023/04/19 09:12:34;;;;;;;12.37;11.27;;;14.60;49.30;;;;;;20798;6816;118156;-73
2023/04/19 09:14:59;;;;;;;14.55;13.43;;;14.70;49.90;;;;;;20594;6816;336284;-74
2023/04/19 09:17:25;;;;;;;14.75;13.62;;;14.80;48.60;;;;;;20603;6816;277067;-73
2023/04/19 09:19:50;;;;;;;13.75;12.55;;;15.10;47.40;;;;;;20792;6816;117542;-74
2023/04/19 09:22:16;;;;;;;13.63;12.37;;;15.00;48.30;;;;;;20813;6816;118042;-73
2023/04/19 09:24:41;;;;;;;15.50;14.30;;;14.80;49.20;;;;;;20601;6816;277804;-74
2023/04/19 09:27:09;;;;;;;15.50;14.30;;;14.90;48.30;;;;;;20598;6816;306850;-74
2023/04/19 09:29:33;;;;;;;15.83;14.40;;;15.20;48.00;;;;;;20585;6816;336724;-73
2023/04/19 09:31:59;;;;;;;15.40;14.20;;;15.50;46.90;;;;;;20600;6816;309637;-74
2023/04/19 09:34:27;;;;;;;13.33;12.23;;;15.50;46.90;;;;;;20812;6816;118388;-74
2023/04/19 09:36:50;;;;;;;15.03;13.83;;;15.40;48.00;;;;;;20586;6816;310559;-74
2023/04/19 09:39:34;;;;;;;17.17;15.77;;;15.40;46.70;;;;;;20600;6816;327655;-77
2023/04/19 09:41:58;;;;;;;13.63;12.53;;;15.60;46.20;;;;;;20581;6816;311079;-76
2023/04/19 09:44:23;;;;;;;13.10;12.00;;;15.80;45.80;;;;;;20809;6816;117947;-76
2023/04/19 09:46:51;;;;;;;13.98;12.98;;;15.70;47.00;;;;;;20594;6816;299891;-73
2023/04/19 09:49:18;;;;;;;11.47;10.57;;;15.70;46.10;;;;;;20799;6816;117955;-73
2023/04/19 09:51:45;;;;;;;13.93;12.82;;;15.60;47.20;;;;;;20566;6816;336281;-73
2023/04/19 09:54:10;;;;;;;13.27;12.27;;;15.70;46.10;;;;;;20589;6814;307784;-73
2023/04/19 09:56:36;;;;;;;13.52;12.52;;;15.90;45.80;;;;;;20612;6815;277611;-73
2023/04/19 09:59:01;;;;;;;13.10;12.07;;;16.10;45.50;;;;;;20594;6816;311127;-72
2023/04/19 10:01:28;;;;;;;13.00;11.95;;;16.30;45.10;;;;;;20811;6816;117386;-72
2023/04/19 10:03:52;;;;;;;11.65;10.75;;;16.20;46.30;;;;;;20574;6816;277486;-74
2023/04/19 10:06:18;;;;;;;11.30;10.60;;;16.30;45.50;;;;;;20599;6816;277197;-73
2023/04/19 10:08:44;;;;;;;10.87;10.07;;;16.40;45.30;;;;;;20807;6816;123820;-72
2023/04/19 10:11:10;;;;;;;11.33;10.43;;;16.40;45.30;;;;;;20591;6816;277276;-71
2023/04/19 10:13:36;;;;;;;10.88;10.20;;;16.60;44.00;;;;;;20577;6816;301037;-72
2023/04/19 10:16:02;;;;;;;9.57;8.87;;;16.60;44.00;;;;;;20809;6816;120105;-73
2023/04/19 10:18:27;;;;;;;9.83;9.03;;;16.60;45.00;;;;;;20771;6816;117515;-72
2023/04/19 10:20:56;;;;;;;9.20;8.50;;;16.40;45.80;;;;;;20764;6816;117165;-72
2023/04/19 10:23:21;;;;;;;9.17;8.50;;;16.20;46.50;;;;;;20774;6816;117725;-73
2023/04/19 10:25:47;;;;;;;9.47;8.80;;;16.00;46.80;;;;;;20756;6816;119472;-72
2023/04/19 10:28:16;;;;;;;10.50;9.80;;;16.00;47.20;;;;;;20559;6816;278459;-72
2023/04/19 10:30:51;;;;;;;11.17;10.27;;;16.20;44.00;;;;;;20594;6816;277242;-74
2023/04/19 10:33:17;;;;;;;10.77;9.98;;;16.50;43.40;;;;;;20499;6816;307561;-72
2023/04/19 10:35:42;;;;;;;9.30;8.67;;;16.90;42.80;;;;;;20762;6816;117464;-72
2023/04/19 10:38:11;;;;;;;10.10;9.40;;;16.90;44.00;;;;;;20583;6816;278273;-72
2023/04/19 10:40:59;;;;;;;9.95;9.25;;;16.90;42.10;;;;;;20586;6816;278123;-73
2023/04/19 10:43:25;;;;;;;9.85;9.15;;;17.10;42.40;;;;;;20556;6816;338713;-72
2023/04/19 10:45:50;;;;;;;8.77;8.23;;;17.40;41.90;;;;;;20756;6816;117139;-73
2023/04/19 10:48:29;;;;;;;9.63;8.93;;;17.30;42.90;;;;;;20597;6816;281434;-72
2023/04/19 10:51:01;;;;;;;8.23;7.63;;;17.30;41.90;;;;;;20791;6816;123405;-72
2023/04/19 10:53:43;;;;;;;9.60;9.00;;;17.30;43.60;;;;;;20586;6816;307572;-72
2023/04/19 10:56:09;;;;;;;9.60;8.90;;;17.40;42.20;;;;;;20587;6816;310736;-74
2023/04/19 10:59:10;;;;;;;9.25;8.70;;;17.80;40.60;;;;;;20594;6816;306575;-73
2023/04/19 11:01:35;;;;;;;8.27;7.67;;;18.20;40.70;;;;;;20152;6807;119992;-73
2023/04/19 11:03:59;;;;;;;8.37;7.87;;;18.10;41.40;;;;;;20780;6822;117772;-73
2023/04/19 11:06:26;;;;;;;7.63;7.13;;;17.90;42.40;;;;;;20794;6820;117680;-73
2023/04/19 11:08:50;;;;;;;8.20;7.70;;;17.60;43.10;;;;;;20785;6821;118420;-73
2023/04/19 11:11:16;;;;;;;8.67;8.10;;;17.40;43.90;;;;;;20783;6821;117626;-71
2023/04/19 11:13:44;;;;;;;10.00;9.30;;;17.30;44.30;;;;;;20556;6821;306578;-72
2023/04/19 11:16:09;;;;;;;8.43;7.63;;;17.50;42.10;;;;;;20774;6821;117903;-69
2023/04/19 11:18:35;;;;;;;8.03;7.47;;;17.60;43.30;;;;;;20794;6821;117638;-70
2023/04/19 11:21:01;;;;;;;9.47;8.87;;;17.50;43.90;;;;;;20577;6821;307770;-72
2023/04/19 11:23:26;;;;;;;8.63;8.03;;;17.60;41.30;;;;;;20790;6821;117174;-72
2023/04/19 11:25:52;;;;;;;9.70;9.10;;;17.70;42.50;;;;;;20556;6822;294647;-71
2023/04/19 11:28:17;;;;;;;8.23;7.67;;;17.80;41.10;;;;;;20775;6822;117634;-73
2023/04/19 11:30:44;;;;;;;10.27;9.57;;;17.90;40.70;;;;;;20581;6822;281163;-70
2023/04/19 11:33:09;;;;;;;9.63;8.83;;;17.90;40.70;;;;;;20788;6822;117896;-69
2023/04/19 11:35:35;;;;;;;9.10;8.40;;;17.60;43.20;;;;;;20759;6822;117200;-70
2023/04/19 11:38:01;;;;;;;30.90;28.43;;;17.60;43.10;;;;;;20586;6807;281580;-71
2023/04/19 11:40:27;;;;;;;10.63;9.73;;;17.70;40.90;;;;;;20626;6807;306169;-71
2023/04/19 11:42:53;;;;;;;9.87;9.17;;;18.00;40.10;;;;;;20620;6807;306555;-72
2023/04/19 11:45:22;;;;;;;10.30;9.60;;;18.00;40.10;;;;;;20601;6807;292571;-71
2023/04/19 11:47:48;;;;;;;9.40;8.60;;;18.10;40.80;;;;;;20737;6807;117559;-71
2023/04/19 11:50:33;;;;;;;10.35;9.65;;;17.90;42.00;;;;;;20331;6807;305570;-71
2023/04/19 11:52:59;;;;;;;9.20;8.33;;;17.50;42.20;;;;;;20830;6807;117502;-72
2023/04/19 11:55:25;;;;;;;10.10;9.13;;;17.50;42.20;;;;;;20787;6807;117094;-73
2023/04/19 11:57:50;;;;;;;8.07;7.50;;;17.20;43.00;;;;;;20821;6807;117394;-75
2023/04/19 12:00:18;;;;;;;8.77;8.17;;;16.90;43.60;;;;;;20836;6807;117203;-74
2023/04/19 12:02:43;;;;;;;10.25;9.48;;;16.60;43.90;;;;;;20588;6807;335919;-75
2023/04/19 12:05:13;;;;;;;8.87;8.27;;;16.70;41.90;;;;;;20835;6807;123343;-74
2023/04/19 12:08:06;;;;;;;10.07;9.23;;;16.70;42.90;;;;;;20613;6807;306544;-70
2023/04/19 12:10:30;;;;;;;9.80;9.10;;;16.90;42.10;;;;;;20844;6807;117224;-69
2023/04/19 12:12:56;;;;;;;9.20;8.37;;;16.80;43.30;;;;;;20849;6807;118182;-73
2023/04/19 12:15:22;;;;;;;10.80;10.00;;;16.70;44.20;;;;;;20638;6807;311570;-70